createdAt,value
2018-04-16T00:03:20.262Z,14.10
2018-04-16T00:06:42.715Z,14.10
2018-04-16T00:10:05.157Z,14.00
2018-04-16T00:13:27.625Z,14.00
2018-04-16T00:16:50.087Z,14.00
2018-04-16T00:20:12.525Z,14.00
2018-04-16T00:23:34.975Z,13.90
2018-04-16T00:26:57.426Z,13.90
2018-04-16T00:30:20.634Z,13.80
2018-04-16T00:33:48.821Z,13.80
2018-04-16T00:37:16.988Z,13.80
2018-04-16T00:40:45.220Z,13.70
2018-04-16T00:44:14.272Z,13.70
2018-04-16T00:47:42.426Z,13.70
2018-04-16T00:51:11.336Z,13.60
2018-04-16T00:54:39.475Z,13.60
2018-04-16T00:58:07.691Z,13.70
2018-04-16T01:01:35.878Z,13.60
2018-04-16T01:05:04.047Z,13.60
2018-04-16T01:08:32.907Z,13.50
2018-04-16T01:12:00.962Z,13.50
2018-04-16T01:15:29.784Z,13.50
2018-04-16T01:18:57.971Z,13.50
2018-04-16T01:22:36.058Z,13.50
2018-04-16T01:26:04.206Z,13.50
2018-04-16T01:29:33.134Z,13.40
2018-04-16T01:33:01.170Z,13.40
2018-04-16T01:36:29.362Z,13.40
2018-04-16T01:39:57.532Z,13.40
2018-04-16T01:43:25.749Z,13.40
2018-04-16T01:46:53.982Z,13.30
2018-04-16T01:50:22.090Z,13.30
2018-04-16T01:53:50.226Z,13.30
2018-04-16T01:57:18.403Z,13.30
2018-04-16T02:00:46.582Z,13.20
2018-04-16T02:04:15.395Z,13.20
2018-04-16T02:07:43.582Z,13.20
2018-04-16T02:11:11.726Z,13.20
2018-04-16T02:14:40.771Z,13.10
2018-04-16T02:18:08.872Z,13.10
2018-04-16T02:21:36.918Z,13.10
2018-04-16T02:25:05.059Z,13.10
2018-04-16T02:28:33.190Z,13.10
2018-04-16T02:32:01.327Z,13.10
2018-04-16T02:35:29.511Z,13.10
2018-04-16T02:38:57.722Z,13.10
2018-04-16T02:42:25.888Z,13.20
2018-04-16T02:45:54.117Z,13.20
2018-04-16T02:49:22.138Z,13.20
2018-04-16T02:52:51.078Z,13.10
2018-04-16T02:56:19.147Z,13.10
2018-04-16T02:59:48.075Z,13.10
2018-04-16T03:03:17.030Z,13.10
2018-04-16T03:06:45.313Z,13.10
2018-04-16T03:10:13.418Z,13.10
2018-04-16T03:13:41.494Z,13.10
2018-04-16T03:17:09.702Z,13.10
2018-04-16T03:20:38.690Z,13.10
2018-04-16T03:24:06.828Z,13.10
2018-04-16T03:27:34.991Z,13.10
2018-04-16T03:31:04.154Z,13.10
2018-04-16T03:34:32.315Z,13.10
2018-04-16T03:38:00.488Z,13.00
2018-04-16T03:41:28.646Z,13.10
2018-04-16T03:44:56.805Z,13.10
2018-04-16T03:48:25.047Z,13.10
2018-04-16T03:51:48.914Z,13.10
2018-04-16T03:55:13.842Z,13.10
2018-04-16T03:58:36.225Z,13.10
2018-04-16T04:01:58.674Z,13.10
2018-04-16T04:05:21.874Z,13.10
2018-04-16T04:08:44.317Z,13.10
2018-04-16T04:12:07.523Z,13.00
2018-04-16T04:15:29.969Z,13.00
2018-04-16T04:18:52.406Z,13.00
2018-04-16T04:22:14.853Z,12.90
2018-04-16T04:25:49.935Z,12.90
2018-04-16T04:29:24.416Z,12.90
2018-04-16T04:32:47.623Z,12.80
2018-04-16T04:36:10.061Z,12.80
2018-04-16T04:39:33.275Z,12.80
2018-04-16T04:42:55.717Z,12.80
2018-04-16T04:46:18.162Z,12.80
2018-04-16T04:49:41.371Z,12.80
2018-04-16T04:53:03.878Z,12.70
2018-04-16T04:56:26.282Z,12.70
2018-04-16T04:59:49.491Z,12.70
2018-04-16T05:03:12.367Z,12.70
2018-04-16T05:06:34.809Z,12.70
2018-04-16T05:09:58.025Z,12.70
2018-04-16T05:13:20.471Z,12.70
2018-04-16T05:16:42.914Z,12.70
2018-04-16T05:20:06.118Z,12.70
2018-04-16T05:23:28.557Z,12.60
2018-04-16T05:26:51.758Z,12.60
2018-04-16T05:30:14.202Z,12.60
2018-04-16T05:33:37.420Z,12.60
2018-04-16T05:36:59.853Z,12.60
2018-04-16T05:40:23.071Z,12.70
2018-04-16T05:43:45.520Z,12.60
2018-04-16T05:47:07.954Z,12.70
2018-04-16T05:50:30.393Z,12.70
2018-04-16T05:53:52.838Z,12.70
2018-04-16T05:57:15.279Z,12.60
2018-04-16T06:00:37.722Z,12.70
2018-04-16T06:04:00.931Z,12.70
2018-04-16T06:07:23.365Z,12.70
2018-04-16T06:10:46.574Z,12.80
2018-04-16T06:14:09.025Z,12.70
2018-04-16T06:17:32.241Z,12.80
2018-04-16T06:20:54.685Z,12.70
2018-04-16T06:24:17.134Z,12.70
2018-04-16T06:27:40.338Z,12.70
2018-04-16T06:31:02.781Z,12.70
2018-04-16T06:34:25.998Z,12.80
2018-04-16T06:37:48.442Z,12.70
2018-04-16T06:41:10.890Z,12.80
2018-04-16T06:44:34.097Z,12.90
2018-04-16T06:47:56.547Z,12.90
2018-04-16T06:51:19.767Z,13.00
2018-04-16T06:54:42.229Z,13.00
2018-04-16T06:58:04.654Z,13.00
2018-04-16T07:01:27.879Z,13.00
2018-04-16T07:04:50.341Z,13.00
2018-04-16T07:08:12.787Z,13.00
2018-04-16T07:11:35.250Z,13.00
2018-04-16T07:14:57.703Z,13.00
2018-04-16T07:18:20.918Z,13.10
2018-04-16T07:21:43.368Z,13.10
2018-04-16T07:25:05.814Z,13.10
2018-04-16T07:28:29.015Z,13.10
2018-04-16T07:31:51.471Z,13.10
2018-04-16T07:35:13.966Z,13.10
2018-04-16T07:38:36.407Z,13.20
2018-04-16T07:41:58.851Z,13.30
2018-04-16T07:45:22.962Z,13.40
2018-04-16T07:48:46.178Z,13.30
2018-04-16T07:52:08.627Z,13.30
2018-04-16T07:55:31.075Z,13.40
2018-04-16T07:58:54.287Z,13.30
2018-04-16T08:02:16.730Z,13.30
2018-04-16T08:05:39.178Z,13.30
2018-04-16T08:09:02.386Z,13.20
2018-04-16T08:12:24.834Z,13.20
2018-04-16T08:15:48.049Z,13.20
2018-04-16T08:19:10.485Z,13.20
2018-04-16T08:22:32.943Z,13.30
2018-04-16T08:25:56.162Z,13.30
2018-04-16T08:29:18.669Z,13.30
2018-04-16T08:32:41.117Z,13.30
2018-04-16T08:36:03.567Z,13.40
2018-04-16T08:39:26.020Z,13.50
2018-04-16T08:42:48.461Z,13.60
2018-04-16T08:46:11.676Z,13.70
2018-04-16T08:49:34.123Z,13.70
2018-04-16T08:52:56.576Z,13.80
2018-04-16T08:56:19.790Z,13.90
2018-04-16T08:59:42.246Z,13.90
2018-04-16T09:03:04.681Z,14.00
2018-04-16T09:06:27.903Z,14.20
2018-04-16T09:09:50.354Z,14.10
2018-04-16T09:13:12.798Z,14.20
2018-04-16T09:16:35.246Z,14.20
2018-04-16T09:19:58.461Z,14.30
2018-04-16T09:23:20.906Z,14.30
2018-04-16T09:26:44.124Z,14.40
2018-04-16T09:30:06.565Z,14.40
2018-04-16T09:33:29.012Z,14.50
2018-04-16T09:36:52.327Z,14.50
2018-04-16T09:40:14.762Z,14.50
2018-04-16T09:43:37.965Z,14.80
2018-04-16T09:47:00.413Z,14.80
2018-04-16T09:50:23.685Z,15.10
2018-04-16T09:53:46.073Z,15.10
2018-04-16T09:57:08.527Z,15.20
2018-04-16T10:04:33.030Z,15.30
2018-04-16T10:07:55.470Z,15.20
2018-04-16T10:11:17.917Z,15.20
2018-04-16T10:14:41.118Z,15.50
2018-04-16T10:18:03.629Z,15.50
2018-04-16T10:21:26.019Z,15.70
2018-04-16T10:24:49.230Z,15.90
2018-04-16T10:28:11.684Z,15.90
2018-04-16T10:31:34.898Z,15.90
2018-04-16T10:34:57.334Z,15.90
2018-04-16T10:38:19.787Z,15.90
2018-04-16T10:41:43.004Z,15.80
2018-04-16T10:45:05.466Z,15.80
2018-04-16T10:48:27.913Z,15.70
2018-04-16T10:51:50.357Z,15.70
2018-04-16T10:55:13.578Z,15.70
2018-04-16T10:58:36.012Z,15.70
2018-04-16T11:01:59.233Z,15.90
2018-04-16T11:05:21.688Z,15.90
2018-04-16T11:08:44.130Z,15.90
2018-04-16T11:12:07.341Z,15.70
2018-04-16T11:15:29.821Z,15.70
2018-04-16T11:18:52.266Z,15.60
2018-04-16T11:22:14.714Z,15.70
2018-04-16T11:25:37.931Z,16.00
2018-04-16T11:29:00.392Z,16.00
2018-04-16T11:32:22.878Z,16.20
2018-04-16T11:35:45.274Z,16.50
2018-04-16T11:39:08.481Z,17.00
2018-04-16T11:42:30.930Z,16.90
2018-04-16T11:45:54.147Z,17.00
2018-04-16T11:49:16.596Z,17.00
2018-04-16T11:52:39.038Z,17.00
2018-04-16T11:56:02.254Z,17.40
2018-04-16T11:59:24.685Z,17.40
2018-04-16T12:02:47.904Z,17.60
2018-04-16T12:06:10.353Z,17.50
2018-04-16T12:09:32.801Z,17.40
2018-04-16T12:12:56.009Z,17.30
2018-04-16T12:16:18.458Z,17.20
2018-04-16T12:19:41.661Z,17.10
2018-04-16T12:23:04.154Z,17.10
2018-04-16T12:26:26.598Z,17.00
2018-04-16T12:29:49.047Z,17.00
2018-04-16T12:33:11.502Z,16.80
2018-04-16T12:36:34.742Z,16.40
2018-04-16T12:39:57.181Z,16.30
2018-04-16T12:43:19.634Z,16.20
2018-04-16T12:46:42.082Z,16.10
2018-04-16T12:50:05.286Z,15.90
2018-04-16T12:53:27.740Z,15.90
2018-04-16T12:56:50.187Z,15.80
2018-04-16T13:00:13.391Z,15.90
2018-04-16T13:03:35.833Z,15.80
2018-04-16T13:06:59.054Z,15.70
2018-04-16T13:10:21.499Z,15.60
2018-04-16T13:13:43.938Z,15.60
2018-04-16T13:17:07.154Z,15.50
2018-04-16T13:20:29.601Z,15.50
2018-04-16T13:23:52.815Z,15.60
2018-04-16T13:27:15.293Z,15.50
2018-04-16T13:30:37.730Z,15.60
2018-04-16T13:34:00.182Z,15.70
2018-04-16T13:37:22.638Z,15.70
2018-04-16T13:40:45.870Z,16.00
2018-04-16T13:44:08.317Z,15.90
2018-04-16T13:47:30.765Z,16.00
2018-04-16T13:50:53.268Z,16.00
2018-04-16T13:54:15.737Z,16.00
2018-04-16T13:57:38.175Z,16.00
2018-04-16T14:01:00.626Z,16.00
2018-04-16T14:04:23.070Z,16.10
2018-04-16T14:07:46.982Z,16.30
2018-04-16T14:11:09.425Z,16.30
2018-04-16T14:14:31.874Z,16.40
2018-04-16T14:17:54.334Z,16.40
2018-04-16T14:21:16.775Z,16.60
2018-04-16T14:24:39.217Z,16.70
2018-04-16T14:28:01.669Z,16.70
2018-04-16T14:31:24.888Z,16.90
2018-04-16T14:34:47.356Z,16.90
2018-04-16T14:38:09.826Z,17.00
2018-04-16T14:41:32.258Z,17.00
2018-04-16T14:44:54.702Z,17.10
2018-04-16T14:48:17.906Z,17.20
2018-04-16T14:51:40.350Z,17.20
2018-04-16T14:55:03.551Z,17.40
2018-04-16T14:58:25.998Z,17.40
2018-04-16T15:01:49.228Z,17.50
2018-04-16T15:05:11.654Z,17.50
2018-04-16T15:08:34.857Z,17.60
2018-04-16T15:11:57.297Z,17.50
2018-04-16T15:15:20.503Z,17.40
2018-04-16T15:18:42.945Z,17.40
2018-04-16T15:22:06.155Z,17.40
2018-04-16T15:25:28.590Z,17.40
2018-04-16T15:28:51.795Z,17.40
2018-04-16T15:32:14.284Z,17.30
2018-04-16T15:35:36.710Z,17.30
2018-04-16T15:38:59.170Z,17.30
2018-04-16T15:42:22.378Z,17.10
2018-04-16T15:45:44.819Z,17.10
2018-04-16T15:49:08.030Z,17.00
2018-04-16T15:52:30.471Z,17.00
2018-04-16T15:55:52.937Z,16.80
2018-04-16T15:59:16.121Z,16.40
2018-04-16T16:02:38.562Z,16.40
2018-04-16T16:06:01.762Z,16.00
2018-04-16T16:09:24.208Z,16.00
2018-04-16T16:12:46.646Z,15.80
2018-04-16T16:16:09.859Z,15.50
2018-04-16T16:19:33.067Z,15.40
2018-04-16T16:22:55.511Z,15.40
2018-04-16T16:26:18.722Z,15.30
2018-04-16T16:29:41.179Z,15.30
2018-04-16T16:33:03.622Z,15.20
2018-04-16T16:36:26.826Z,15.20
2018-04-16T16:39:49.266Z,15.20
2018-04-16T16:43:12.475Z,15.10
2018-04-16T16:46:34.923Z,15.10
2018-04-16T16:49:58.127Z,15.10
2018-04-16T16:53:20.570Z,15.10
2018-04-16T16:56:43.772Z,15.00
2018-04-16T17:00:06.218Z,15.00
2018-04-16T17:03:29.439Z,15.00
2018-04-16T17:06:51.874Z,14.90
2018-04-16T17:10:14.321Z,14.90
2018-04-16T17:13:37.530Z,14.80
2018-04-16T17:16:59.969Z,14.80
2018-04-16T17:20:23.178Z,14.70
2018-04-16T17:23:45.634Z,14.70
2018-04-16T17:27:08.090Z,14.70
2018-04-16T17:30:31.571Z,14.60
2018-04-16T17:33:54.006Z,14.60
2018-04-16T17:37:16.437Z,14.60
2018-04-16T17:40:38.886Z,14.50
2018-04-16T17:44:01.328Z,14.40
2018-04-16T17:47:24.526Z,14.30
2018-04-16T17:50:47.736Z,14.30
2018-04-16T17:54:10.179Z,14.20
2018-04-16T17:57:32.620Z,14.20
2018-04-16T18:00:55.070Z,14.10
2018-04-16T18:04:17.511Z,14.10
2018-04-16T18:07:39.953Z,14.10
2018-04-16T18:11:02.386Z,14.00
2018-04-16T18:14:25.597Z,13.90
2018-04-16T18:17:48.084Z,13.90
2018-04-16T18:21:10.506Z,13.90
2018-04-16T18:24:33.718Z,13.80
2018-04-16T18:27:56.188Z,13.80
2018-04-16T18:31:18.614Z,13.70
2018-04-16T18:34:41.838Z,13.60
2018-04-16T18:38:04.282Z,13.60
2018-04-16T18:41:26.731Z,13.60
2018-04-16T18:44:49.966Z,13.50
2018-04-16T18:48:13.345Z,13.50
2018-04-16T18:51:35.789Z,13.50
2018-04-16T18:54:58.279Z,13.50
2018-04-16T18:58:20.751Z,13.40
2018-04-16T19:01:43.238Z,13.40
2018-04-16T19:05:05.699Z,13.30
2018-04-16T19:08:28.140Z,13.30
2018-04-16T19:11:50.582Z,13.30
2018-04-16T19:15:13.023Z,13.20
2018-04-16T19:18:36.231Z,13.20
2018-04-16T19:21:58.681Z,13.20
2018-04-16T19:25:21.129Z,13.10
2018-04-16T19:28:44.335Z,13.10
2018-04-16T19:32:06.771Z,13.10
2018-04-16T19:35:29.990Z,13.00
2018-04-16T19:38:52.434Z,13.00
2018-04-16T19:42:21.386Z,13.00
2018-04-16T19:45:43.838Z,13.00
2018-04-16T19:49:12.006Z,12.90
2018-04-16T19:52:35.210Z,12.90
2018-04-16T19:56:03.426Z,12.90
2018-04-16T19:59:25.867Z,12.90
2018-04-16T20:02:54.654Z,12.70
2018-04-16T20:06:17.099Z,12.70
2018-04-16T20:09:39.561Z,12.60
2018-04-16T20:13:02.008Z,12.60
2018-04-16T20:16:24.462Z,12.50
2018-04-16T20:19:46.914Z,12.50
2018-04-16T20:23:09.348Z,12.40
2018-04-16T20:26:31.790Z,12.40
2018-04-16T20:29:54.230Z,12.30
2018-04-16T20:33:16.685Z,12.30
2018-04-16T20:36:39.125Z,12.20
2018-04-16T20:40:02.329Z,12.20
2018-04-16T20:43:24.771Z,12.10
2018-04-16T20:46:47.978Z,12.10
2018-04-16T20:50:10.427Z,12.00
2018-04-16T20:53:33.634Z,12.00
2018-04-16T20:56:56.092Z,11.90
2018-04-16T21:00:18.519Z,11.90
2018-04-16T21:03:41.721Z,11.90
2018-04-16T21:07:04.987Z,11.80
2018-04-16T21:10:27.470Z,11.80
2018-04-16T21:13:50.719Z,11.80
2018-04-16T21:17:13.206Z,11.70
2018-04-16T21:20:35.698Z,11.70
2018-04-16T21:23:58.942Z,11.70
2018-04-16T21:27:21.428Z,11.70
2018-04-16T21:30:43.914Z,11.70
2018-04-16T21:34:06.410Z,11.70
2018-04-16T21:37:28.897Z,11.70
2018-04-16T21:40:51.378Z,11.60
2018-04-16T21:44:13.862Z,11.60
2018-04-16T21:47:37.122Z,11.60
2018-04-16T21:50:59.635Z,11.60
2018-04-16T21:54:22.117Z,11.60
2018-04-16T21:57:44.601Z,11.60
2018-04-16T22:01:07.085Z,11.60
2018-04-16T22:04:29.558Z,11.60
2018-04-16T22:07:52.042Z,11.60
2018-04-16T22:11:15.418Z,11.60
2018-04-16T22:14:37.926Z,11.60
2018-04-16T22:18:00.403Z,11.60
2018-04-16T22:21:22.885Z,11.70
2018-04-16T22:24:46.147Z,11.70
2018-04-16T22:28:08.633Z,11.70
2018-04-16T22:31:31.167Z,11.70
2018-04-16T22:34:53.657Z,11.70
2018-04-16T22:38:16.134Z,11.70
2018-04-16T22:41:38.624Z,11.70
2018-04-16T22:45:01.110Z,11.70
2018-04-16T22:48:24.412Z,11.70
2018-04-16T22:51:46.896Z,11.70
2018-04-16T22:55:09.381Z,11.70
2018-04-16T22:58:31.859Z,11.70
2018-04-16T23:01:54.337Z,11.70
2018-04-16T23:05:16.822Z,11.70
2018-04-16T23:08:40.070Z,11.70
2018-04-16T23:12:02.558Z,11.70
2018-04-16T23:15:25.043Z,11.60
2018-04-16T23:18:48.285Z,11.70
2018-04-16T23:22:10.765Z,11.60
2018-04-16T23:25:33.254Z,11.70
2018-04-16T23:28:56.493Z,11.70
2018-04-16T23:32:18.973Z,11.60
2018-04-16T23:35:41.455Z,11.60
2018-04-16T23:39:03.926Z,11.60
2018-04-16T23:42:27.173Z,11.70
2018-04-16T23:45:49.739Z,11.70
2018-04-16T23:49:12.206Z,11.70
2018-04-16T23:52:34.687Z,11.70
2018-04-16T23:55:57.165Z,11.70
2018-04-16T23:59:19.637Z,11.70
